createdAt,value
2022-12-02T00:00:27.714Z,10.77
2022-12-02T00:02:56.964Z,9.15
2022-12-02T00:05:34.528Z,11.15
2022-12-02T00:08:13.309Z,12.32
2022-12-02T00:10:40.305Z,7.40
2022-12-02T00:13:25.106Z,7.45
2022-12-02T00:16:03.856Z,9.45
2022-12-02T00:18:31.467Z,8.30
2022-12-02T00:20:58.648Z,6.53
2022-12-02T00:23:25.589Z,7.50
2022-12-02T00:25:53.984Z,6.28
2022-12-02T00:28:21.514Z,6.55
2022-12-02T00:30:48.609Z,6.25
2022-12-02T00:33:17.697Z,4.78
2022-12-02T00:35:45.288Z,6.75
2022-12-02T00:38:12.259Z,7.38
2022-12-02T00:40:39.169Z,7.10
2022-12-02T00:43:24.588Z,6.00
2022-12-02T00:46:10.210Z,4.95
2022-12-02T00:48:37.211Z,7.10
2022-12-02T00:51:04.997Z,6.35
2022-12-02T00:53:33.210Z,4.43
2022-12-02T00:56:00.531Z,4.20
2022-12-02T00:58:27.672Z,4.32
2022-12-02T01:00:54.984Z,5.78
2022-12-02T01:03:22.050Z,4.90
2022-12-02T01:05:48.993Z,4.28
2022-12-02T01:08:16.000Z,5.50
2022-12-02T01:10:42.933Z,4.65
2022-12-02T01:13:09.881Z,4.75
2022-12-02T01:15:36.832Z,6.93
2022-12-02T01:18:03.837Z,3.90
2022-12-02T01:20:30.825Z,4.45
2022-12-02T01:22:57.823Z,4.70
2022-12-02T01:25:24.789Z,4.25
2022-12-02T01:27:51.735Z,5.13
2022-12-02T01:30:18.768Z,5.38
2022-12-02T01:32:45.767Z,5.20
2022-12-02T01:35:13.643Z,3.55
2022-12-02T01:37:40.679Z,5.85
2022-12-02T01:40:09.168Z,3.55
2022-12-02T01:42:36.691Z,4.13
2022-12-02T01:45:04.215Z,3.63
2022-12-02T01:47:31.747Z,7.82
2022-12-02T01:49:58.976Z,4.25
2022-12-02T01:52:26.812Z,3.67
2022-12-02T01:54:54.223Z,3.47
2022-12-02T01:57:29.005Z,3.30
2022-12-02T01:59:56.736Z,3.22
2022-12-02T02:02:32.854Z,3.92
2022-12-02T02:05:05.898Z,3.92
2022-12-02T02:07:35.668Z,2.25
2022-12-02T02:10:03.379Z,3.33
2022-12-02T02:12:31.211Z,2.20
2022-12-02T02:14:58.402Z,2.95
2022-12-02T02:17:25.892Z,2.58
2022-12-02T02:20:02.844Z,3.88
2022-12-02T02:22:43.411Z,2.22
2022-12-02T02:25:19.899Z,1.92
2022-12-02T02:27:56.913Z,2.30
2022-12-02T02:30:26.605Z,2.45
2022-12-02T02:32:54.152Z,1.67
2022-12-02T02:35:21.808Z,2.28
2022-12-02T02:37:50.107Z,1.45
2022-12-02T02:40:18.867Z,1.33
2022-12-02T02:42:51.445Z,1.90
2022-12-02T02:45:21.057Z,1.48
2022-12-02T02:47:49.034Z,1.33
2022-12-02T02:50:17.022Z,1.65
2022-12-02T02:52:44.129Z,1.48
2022-12-02T02:55:18.484Z,1.45
2022-12-02T02:57:45.750Z,1.83
2022-12-02T03:00:13.676Z,1.67
2022-12-02T03:02:41.986Z,1.60
2022-12-02T03:05:09.365Z,1.55
2022-12-02T03:07:36.857Z,1.90
2022-12-02T03:10:06.889Z,2.10
2022-12-02T03:12:34.182Z,3.13
2022-12-02T03:15:02.596Z,2.33
2022-12-02T03:17:29.760Z,2.88
2022-12-02T03:19:57.027Z,4.53
2022-12-02T03:22:24.421Z,3.97
2022-12-02T03:24:51.953Z,4.40
2022-12-02T03:27:19.268Z,5.93
2022-12-02T03:29:46.816Z,4.88
2022-12-02T03:32:14.028Z,4.63
2022-12-02T03:34:42.664Z,6.50
2022-12-02T03:37:10.795Z,5.05
2022-12-02T03:39:38.710Z,7.00
2022-12-02T03:42:06.207Z,6.47
2022-12-02T03:44:33.409Z,7.40
2022-12-02T03:47:02.365Z,6.97
2022-12-02T03:49:29.929Z,6.05
2022-12-02T03:51:57.504Z,5.93
2022-12-02T03:54:24.726Z,5.18
2022-12-02T03:56:51.908Z,7.00
2022-12-02T03:59:25.867Z,6.82
2022-12-02T04:01:52.921Z,3.67
2022-12-02T04:04:19.946Z,3.88
2022-12-02T04:06:46.997Z,2.75
2022-12-02T04:09:13.930Z,2.63
2022-12-02T04:11:40.848Z,2.65
2022-12-02T04:14:07.815Z,4.97
2022-12-02T04:16:34.836Z,5.47
2022-12-02T04:19:01.844Z,3.42
2022-12-02T04:21:28.783Z,5.20
2022-12-02T04:23:55.711Z,4.40
2022-12-02T04:26:22.632Z,4.30
2022-12-02T04:28:49.546Z,3.35
2022-12-02T04:31:16.625Z,3.08
2022-12-02T04:33:43.608Z,2.70
2022-12-02T04:36:10.654Z,3.38
2022-12-02T04:38:37.604Z,2.70
2022-12-02T04:41:04.610Z,3.30
2022-12-02T04:43:31.637Z,2.75
2022-12-02T04:45:58.562Z,6.15
2022-12-02T04:48:25.606Z,2.78
2022-12-02T04:50:52.526Z,2.80
2022-12-02T04:53:19.573Z,2.90
2022-12-02T04:55:46.948Z,3.90
2022-12-02T04:58:14.728Z,2.42
2022-12-02T05:00:42.063Z,2.42
2022-12-02T05:03:09.115Z,2.33
2022-12-02T05:05:36.144Z,4.28
2022-12-02T05:08:03.418Z,2.40
2022-12-02T05:10:30.430Z,2.03
2022-12-02T05:12:57.410Z,2.35
2022-12-02T05:15:24.424Z,2.10
2022-12-02T05:17:51.361Z,3.15
2022-12-02T05:20:18.443Z,1.88
2022-12-02T05:22:45.393Z,2.10
2022-12-02T05:25:13.058Z,3.53
2022-12-02T05:27:40.014Z,1.90
2022-12-02T05:30:08.175Z,1.90
2022-12-02T05:32:35.228Z,2.47
2022-12-02T05:35:02.203Z,17.17
2022-12-02T05:37:29.175Z,9.57
2022-12-02T05:39:58.540Z,5.15
2022-12-02T05:42:25.496Z,7.15
2022-12-02T05:44:52.564Z,6.10
2022-12-02T05:47:19.730Z,6.53
2022-12-02T05:49:47.116Z,11.55
2022-12-02T05:52:28.424Z,6.80
2022-12-02T05:55:00.819Z,7.15
2022-12-02T05:57:30.547Z,7.47
2022-12-02T06:00:17.080Z,8.77
2022-12-02T06:02:59.705Z,3.42
2022-12-02T06:05:30.602Z,4.82
2022-12-02T06:08:13.918Z,2.78
2022-12-02T06:10:52.901Z,3.80
2022-12-02T06:13:22.547Z,3.85
2022-12-02T06:15:50.870Z,6.13
2022-12-02T06:18:22.318Z,5.38
2022-12-02T06:20:55.872Z,8.02
2022-12-02T06:23:25.375Z,9.75
2022-12-02T06:25:53.332Z,12.43
2022-12-02T06:28:23.493Z,12.15
2022-12-02T06:30:50.553Z,10.80
2022-12-02T06:33:27.060Z,13.98
2022-12-02T06:35:54.902Z,11.13
2022-12-02T06:38:28.209Z,14.07
2022-12-02T06:40:55.385Z,8.98
2022-12-02T06:43:32.398Z,9.20
2022-12-02T06:45:59.440Z,11.55
2022-12-02T06:48:33.322Z,14.23
2022-12-02T06:53:48.672Z,15.00
2022-12-02T06:56:30.087Z,18.02
2022-12-02T06:59:01.297Z,31.63
2022-12-02T07:01:28.506Z,17.15
2022-12-02T07:04:01.861Z,18.05
2022-12-02T07:06:30.821Z,22.77
2022-12-02T07:09:02.209Z,39.15
2022-12-02T07:11:53.426Z,42.10
2022-12-02T07:14:39.299Z,29.25
2022-12-02T07:17:29.753Z,41.15
2022-12-02T07:20:02.729Z,25.92
2022-12-02T07:22:50.020Z,23.17
2022-12-02T07:25:17.229Z,19.95
2022-12-02T07:27:49.989Z,32.78
2022-12-02T07:30:23.345Z,23.00
2022-12-02T07:32:50.484Z,25.52
2022-12-02T07:35:17.737Z,19.92
2022-12-02T07:37:45.031Z,20.85
2022-12-02T07:40:13.573Z,27.90
2022-12-02T07:42:40.732Z,37.38
2022-12-02T07:45:08.485Z,30.90
2022-12-02T07:47:35.573Z,32.63
2022-12-02T07:50:02.656Z,23.02
2022-12-02T07:52:29.635Z,29.42
2022-12-02T07:54:56.620Z,25.23
2022-12-02T07:57:24.234Z,38.22
2022-12-02T07:59:51.197Z,29.75
2022-12-02T08:02:18.150Z,29.23
2022-12-02T08:04:45.354Z,25.85
2022-12-02T08:07:12.452Z,24.95
2022-12-02T08:09:39.459Z,25.38
2022-12-02T08:12:06.595Z,24.83
2022-12-02T08:14:33.573Z,31.45
2022-12-02T08:17:00.592Z,27.05
2022-12-02T08:19:27.573Z,33.58
2022-12-02T08:21:54.521Z,29.23
2022-12-02T08:24:21.461Z,25.63
2022-12-02T08:26:48.524Z,20.02
2022-12-02T08:29:15.453Z,21.52
2022-12-02T08:31:42.629Z,23.77
2022-12-02T08:34:09.544Z,21.73
2022-12-02T08:36:36.729Z,20.75
2022-12-02T08:39:05.892Z,20.65
2022-12-02T08:41:34.673Z,25.33
2022-12-02T08:44:02.283Z,24.35
2022-12-02T08:46:30.722Z,28.13
2022-12-02T08:48:58.081Z,28.10
2022-12-02T08:51:25.270Z,20.65
2022-12-02T08:53:53.269Z,27.58
2022-12-02T08:56:20.317Z,24.95
2022-12-02T08:58:47.300Z,19.17
2022-12-02T09:01:14.396Z,23.23
2022-12-02T09:03:41.612Z,26.63
2022-12-02T09:06:08.550Z,22.00
2022-12-02T09:08:36.730Z,20.40
2022-12-02T09:11:03.917Z,25.65
2022-12-02T09:13:31.025Z,22.42
2022-12-02T09:15:58.043Z,95.20
2022-12-02T09:18:25.238Z,21.67
2022-12-02T09:20:52.183Z,20.67
2022-12-02T09:23:19.125Z,29.02
2022-12-02T09:25:46.084Z,21.17
2022-12-02T09:28:13.007Z,22.10
2022-12-02T09:30:40.117Z,19.90
2022-12-02T09:33:07.067Z,19.38
2022-12-02T09:35:34.032Z,11.90
2022-12-02T09:38:02.203Z,14.65
2022-12-02T09:40:29.300Z,10.77
2022-12-02T09:42:56.299Z,12.25
2022-12-02T09:45:23.251Z,8.15
2022-12-02T09:47:50.274Z,11.98
2022-12-02T09:50:17.840Z,10.90
2022-12-02T09:52:45.826Z,7.53
2022-12-02T09:55:15.963Z,5.43
2022-12-02T09:57:43.593Z,5.97
2022-12-02T10:00:17.122Z,10.15
2022-12-02T10:02:50.132Z,5.88
2022-12-02T10:05:23.430Z,10.25
2022-12-02T10:07:53.779Z,8.43
2022-12-02T10:10:23.560Z,8.73
2022-12-02T10:12:51.092Z,5.65
2022-12-02T10:15:23.660Z,7.90
2022-12-02T10:17:50.989Z,9.25
2022-12-02T10:20:23.799Z,5.45
2022-12-02T10:23:09.410Z,6.75
2022-12-02T10:25:37.607Z,5.85
2022-12-02T10:28:05.069Z,5.80
2022-12-02T10:30:32.703Z,6.32
2022-12-02T10:33:00.800Z,8.13
2022-12-02T10:35:29.516Z,7.43
2022-12-02T10:37:56.622Z,6.30
2022-12-02T10:40:25.752Z,7.63
2022-12-02T10:43:12.042Z,6.03
2022-12-02T10:45:39.069Z,5.22
2022-12-02T10:48:16.255Z,9.80
2022-12-02T10:50:44.049Z,8.50
2022-12-02T10:53:17.574Z,8.93
2022-12-02T10:55:46.274Z,8.07
2022-12-02T10:58:25.898Z,8.52
2022-12-02T11:00:53.004Z,6.72
2022-12-02T11:03:20.499Z,9.35
2022-12-02T11:05:47.954Z,10.23
2022-12-02T11:08:25.760Z,9.02
2022-12-02T11:11:15.988Z,12.35
2022-12-02T11:13:59.377Z,8.32
2022-12-02T11:16:29.363Z,10.20
2022-12-02T11:19:02.614Z,10.32
2022-12-02T11:21:29.510Z,8.68
2022-12-02T11:24:24.458Z,8.13
2022-12-02T11:27:00.741Z,6.13
2022-12-02T11:29:29.568Z,9.02
2022-12-02T11:32:05.449Z,10.40
2022-12-02T11:37:37.953Z,13.43
2022-12-02T11:40:27.999Z,12.35
2022-12-02T11:43:33.222Z,11.77
2022-12-02T11:46:00.358Z,10.32
2022-12-02T11:48:27.409Z,13.50
2022-12-02T11:50:54.451Z,9.35
2022-12-02T11:53:24.080Z,8.45
2022-12-02T11:55:54.742Z,20.08
2022-12-02T11:58:33.963Z,10.45
2022-12-02T12:01:12.772Z,10.27
2022-12-02T12:03:47.870Z,12.85
2022-12-02T12:06:29.598Z,9.45
2022-12-02T12:08:57.386Z,11.63
2022-12-02T12:11:28.625Z,12.55
2022-12-02T12:14:01.527Z,10.40
2022-12-02T12:16:33.450Z,8.67
2022-12-02T12:19:13.747Z,8.00
2022-12-02T12:21:52.429Z,11.32
2022-12-02T12:24:20.800Z,11.20
2022-12-02T12:26:51.944Z,10.57
2022-12-02T12:29:21.192Z,10.18
2022-12-02T12:31:48.311Z,10.68
2022-12-02T12:34:18.623Z,9.40
2022-12-02T12:36:46.262Z,10.38
2022-12-02T12:39:14.281Z,9.02
2022-12-02T12:44:31.043Z,10.68
2022-12-02T12:47:00.370Z,11.77
2022-12-02T12:49:27.834Z,12.82
2022-12-02T12:51:54.967Z,9.15
2022-12-02T12:54:21.968Z,10.25
2022-12-02T12:56:49.080Z,11.20
2022-12-02T12:59:16.079Z,11.13
2022-12-02T13:01:44.835Z,8.60
2022-12-02T13:04:13.544Z,10.65
2022-12-02T13:06:43.059Z,8.05
2022-12-02T13:09:12.005Z,9.57
2022-12-02T13:11:39.971Z,10.98
2022-12-02T13:14:08.253Z,14.70
2022-12-02T13:16:35.948Z,10.63
2022-12-02T13:19:03.157Z,9.68
2022-12-02T13:21:30.233Z,7.40
2022-12-02T13:23:57.293Z,5.75
2022-12-02T13:26:24.280Z,7.78
2022-12-02T13:28:53.227Z,6.03
2022-12-02T13:31:20.919Z,6.47
2022-12-02T13:33:48.122Z,4.43
2022-12-02T13:36:15.103Z,5.82
2022-12-02T13:38:42.101Z,8.57
2022-12-02T13:41:09.314Z,7.20
2022-12-02T13:43:36.319Z,4.32
2022-12-02T13:46:03.614Z,5.80
2022-12-02T13:48:30.689Z,5.85
2022-12-02T13:50:57.683Z,9.85
2022-12-02T13:53:24.788Z,4.55
2022-12-02T13:55:51.906Z,8.55
2022-12-02T13:58:18.969Z,4.82
2022-12-02T14:00:46.374Z,4.50
2022-12-02T14:03:13.384Z,4.53
2022-12-02T14:05:40.471Z,3.33
2022-12-02T14:08:07.427Z,5.63
2022-12-02T14:10:34.501Z,3.05
2022-12-02T14:13:01.532Z,3.15
2022-12-02T14:15:28.985Z,4.88
2022-12-02T14:17:55.988Z,3.63
2022-12-02T14:20:22.960Z,3.13
2022-12-02T14:22:49.983Z,4.88
2022-12-02T14:25:17.134Z,4.55
2022-12-02T14:27:44.109Z,3.60
2022-12-02T14:30:11.977Z,3.35
2022-12-02T14:32:38.966Z,4.38
2022-12-02T14:35:07.058Z,4.55
2022-12-02T14:37:34.391Z,4.90
2022-12-02T14:40:04.398Z,5.18
2022-12-02T14:42:31.791Z,7.85
2022-12-02T14:44:58.744Z,8.32
2022-12-02T14:47:25.891Z,5.03
2022-12-02T14:49:52.993Z,5.80
2022-12-02T14:52:20.071Z,6.57
2022-12-02T14:54:47.190Z,5.05
2022-12-02T14:57:14.510Z,4.43
2022-12-02T14:59:42.301Z,4.10
2022-12-02T15:02:10.251Z,5.10
2022-12-02T15:04:37.366Z,6.78
2022-12-02T15:07:04.340Z,4.03
2022-12-02T15:09:31.413Z,5.68
2022-12-02T15:11:58.507Z,18.02
2022-12-02T15:14:25.863Z,23.38
2022-12-02T15:16:52.974Z,12.18
2022-12-02T15:19:20.061Z,8.25
2022-12-02T15:21:47.016Z,7.65
2022-12-02T15:24:14.055Z,8.00
2022-12-02T15:26:41.180Z,5.72
2022-12-02T15:29:08.125Z,5.28
2022-12-02T15:31:35.176Z,6.07
2022-12-02T15:34:02.394Z,6.97
2022-12-02T15:36:29.330Z,8.52
2022-12-02T15:38:56.250Z,11.45
2022-12-02T15:41:23.158Z,5.03
2022-12-02T15:43:53.589Z,5.28
2022-12-02T15:46:24.914Z,6.47
2022-12-02T15:48:52.284Z,3.45
2022-12-02T15:51:19.697Z,7.65
2022-12-02T15:53:46.701Z,10.77
2022-12-02T15:56:15.908Z,4.65
2022-12-02T15:58:43.406Z,5.20
2022-12-02T16:01:10.460Z,6.85
2022-12-02T16:03:37.458Z,6.35
2022-12-02T16:06:04.617Z,6.68
2022-12-02T16:08:33.190Z,6.82
2022-12-02T16:11:00.215Z,9.43
2022-12-02T16:13:27.269Z,6.22
2022-12-02T16:15:54.203Z,7.63
2022-12-02T16:18:21.321Z,11.27
2022-12-02T16:20:53.875Z,11.60
2022-12-02T16:23:23.035Z,10.27
2022-12-02T16:25:50.043Z,8.05
2022-12-02T16:28:16.986Z,5.68
2022-12-02T16:30:43.949Z,8.05
2022-12-02T16:33:10.878Z,29.67
2022-12-02T16:35:37.881Z,30.55
2022-12-02T16:38:05.213Z,20.58
2022-12-02T16:40:32.481Z,16.38
2022-12-02T16:43:02.227Z,22.00
2022-12-02T16:45:29.349Z,18.67
2022-12-02T16:47:56.358Z,16.23
2022-12-02T16:50:23.377Z,13.93
2022-12-02T16:52:51.132Z,11.52
2022-12-02T16:55:19.253Z,13.23
2022-12-02T16:57:46.645Z,17.27
2022-12-02T17:00:14.065Z,21.95
2022-12-02T17:02:42.935Z,23.50
2022-12-02T17:05:10.873Z,20.58
2022-12-02T17:07:38.101Z,20.15
2022-12-02T17:10:05.909Z,18.73
2022-12-02T17:12:32.952Z,14.07
2022-12-02T17:15:00.194Z,10.05
2022-12-02T17:20:15.371Z,10.77
2022-12-02T17:22:43.881Z,14.68
2022-12-02T17:25:13.124Z,10.43
2022-12-02T17:27:40.874Z,13.40
2022-12-02T17:30:08.949Z,11.90
2022-12-02T17:32:35.921Z,26.13
2022-12-02T17:35:03.245Z,27.42
2022-12-02T17:37:30.205Z,20.90
2022-12-02T17:39:57.198Z,17.67
2022-12-02T17:42:24.123Z,15.73
2022-12-02T17:44:51.458Z,20.63
2022-12-02T17:47:18.670Z,15.57
2022-12-02T17:49:45.566Z,17.50
2022-12-02T17:52:21.136Z,16.48
2022-12-02T17:54:48.565Z,17.15
2022-12-02T17:57:15.563Z,15.48
2022-12-02T17:59:42.594Z,19.92
2022-12-02T18:02:13.166Z,19.08
2022-12-02T18:04:44.699Z,21.27
2022-12-02T18:07:12.619Z,21.83
2022-12-02T18:09:40.088Z,22.30
2022-12-02T18:12:08.052Z,38.42
2022-12-02T18:14:35.486Z,27.17
2022-12-02T18:17:02.573Z,26.27
2022-12-02T18:19:29.636Z,24.58
2022-12-02T18:21:56.632Z,23.38
2022-12-02T18:24:23.626Z,23.42
2022-12-02T18:26:50.617Z,26.02
2022-12-02T18:29:17.713Z,19.08
2022-12-02T18:31:44.876Z,17.00
2022-12-02T18:34:12.343Z,17.55
2022-12-02T18:36:39.302Z,14.57
2022-12-02T18:39:07.232Z,14.30
2022-12-02T18:41:34.382Z,19.33
2022-12-02T18:44:01.333Z,18.88
2022-12-02T18:46:28.434Z,17.55
2022-12-02T18:48:55.483Z,24.30
2022-12-02T18:51:22.479Z,23.45
2022-12-02T18:53:49.442Z,24.38
2022-12-02T18:56:22.137Z,24.02
2022-12-02T18:58:51.176Z,25.42
2022-12-02T19:01:18.204Z,17.38
2022-12-02T19:03:45.312Z,24.45
2022-12-02T19:06:12.201Z,20.35
2022-12-02T19:08:39.287Z,21.10
2022-12-02T19:11:06.239Z,21.83
2022-12-02T19:13:33.265Z,20.30
2022-12-02T19:16:00.342Z,26.35
2022-12-02T19:18:27.383Z,19.35
2022-12-02T19:20:54.364Z,23.83
2022-12-02T19:23:21.333Z,21.83
2022-12-02T19:25:50.364Z,21.17
2022-12-02T19:28:17.675Z,27.30
2022-12-02T19:30:44.700Z,22.75
2022-12-02T19:33:11.769Z,22.33
2022-12-02T19:35:38.795Z,22.77
2022-12-02T19:38:10.231Z,29.42
2022-12-02T19:40:45.170Z,20.83
2022-12-02T19:43:16.363Z,22.05
2022-12-02T19:45:44.073Z,20.15
2022-12-02T19:48:11.080Z,21.25
2022-12-02T19:50:38.001Z,21.60
2022-12-02T19:53:05.324Z,25.17
2022-12-02T19:55:32.300Z,25.98
2022-12-02T19:57:59.286Z,25.23
2022-12-02T20:00:26.317Z,30.30
2022-12-02T20:02:53.475Z,32.40
2022-12-02T20:05:21.614Z,42.80
2022-12-02T20:07:49.799Z,35.47
2022-12-02T20:10:17.697Z,26.65
2022-12-02T20:12:44.792Z,34.15
2022-12-02T20:15:12.647Z,24.20
2022-12-02T20:17:39.823Z,28.60
2022-12-02T20:20:09.194Z,29.30
2022-12-02T20:22:36.226Z,30.67
2022-12-02T20:25:03.190Z,21.85
2022-12-02T20:27:30.277Z,29.55
2022-12-02T20:29:57.245Z,28.48
2022-12-02T20:32:24.213Z,29.27
2022-12-02T20:34:51.394Z,23.90
2022-12-02T20:37:18.587Z,28.70
2022-12-02T20:39:46.231Z,24.45
2022-12-02T20:42:13.904Z,28.35
2022-12-02T20:44:40.886Z,24.30
2022-12-02T20:47:08.018Z,28.27
2022-12-02T20:49:35.073Z,24.55
2022-12-02T20:52:02.068Z,27.77
2022-12-02T20:54:29.064Z,27.23
2022-12-02T20:56:57.701Z,24.00
2022-12-02T20:59:24.755Z,25.20
2022-12-02T21:01:51.849Z,21.48
2022-12-02T21:04:18.855Z,19.50
2022-12-02T21:06:45.877Z,22.88
2022-12-02T21:09:16.178Z,20.27
2022-12-02T21:11:43.367Z,21.52
2022-12-02T21:14:10.373Z,23.35
2022-12-02T21:16:37.638Z,22.58
2022-12-02T21:19:05.077Z,23.58
2022-12-02T21:21:32.546Z,23.13
2022-12-02T21:24:03.766Z,25.63
2022-12-02T21:26:31.819Z,20.85
2022-12-02T21:28:59.150Z,25.73
2022-12-02T21:31:26.847Z,27.13
2022-12-02T21:33:54.131Z,24.73
2022-12-02T21:36:21.139Z,25.63
2022-12-02T21:38:48.164Z,22.30
2022-12-02T21:41:15.238Z,21.50
2022-12-02T21:43:42.207Z,20.23
2022-12-02T21:46:09.469Z,24.70
2022-12-02T21:48:40.495Z,19.63
2022-12-02T21:51:11.848Z,19.15
2022-12-02T21:53:38.827Z,21.27
2022-12-02T21:56:06.191Z,25.35
2022-12-02T21:58:33.228Z,22.27
2022-12-02T22:01:19.012Z,21.00
2022-12-02T22:03:46.022Z,28.88
2022-12-02T22:06:13.063Z,22.98
2022-12-02T22:08:40.221Z,22.40
2022-12-02T22:11:07.380Z,27.30
2022-12-02T22:13:34.427Z,23.83
2022-12-02T22:16:01.487Z,23.90
2022-12-02T22:18:28.563Z,24.73
2022-12-02T22:20:55.682Z,24.15
2022-12-02T22:23:22.679Z,27.80
2022-12-02T22:25:49.712Z,25.77
2022-12-02T22:28:16.633Z,22.75
2022-12-02T22:30:43.651Z,21.25
2022-12-02T22:33:10.593Z,20.80
2022-12-02T22:35:37.544Z,26.73
2022-12-02T22:38:04.473Z,27.27
2022-12-02T22:40:31.438Z,34.80
2022-12-02T22:42:58.377Z,30.35
2022-12-02T22:45:25.346Z,27.25
2022-12-02T22:47:52.315Z,25.00
2022-12-02T22:50:19.237Z,25.80
2022-12-02T22:52:46.321Z,19.73
2022-12-02T22:55:13.289Z,23.90
2022-12-02T22:57:40.337Z,27.48
2022-12-02T23:00:09.100Z,24.70
2022-12-02T23:02:36.599Z,33.10
2022-12-02T23:05:03.855Z,27.58
2022-12-02T23:07:30.891Z,33.75
2022-12-02T23:09:57.895Z,27.63
2022-12-02T23:12:25.811Z,34.50
2022-12-02T23:15:04.690Z,29.15
2022-12-02T23:17:40.220Z,27.95
2022-12-02T23:20:07.888Z,25.65
2022-12-02T23:22:36.171Z,24.63
2022-12-02T23:25:04.032Z,21.52
2022-12-02T23:27:30.977Z,21.92
2022-12-02T23:29:57.950Z,26.80
2022-12-02T23:32:24.899Z,25.38
2022-12-02T23:34:51.981Z,24.95
2022-12-02T23:37:19.217Z,21.73
2022-12-02T23:39:46.952Z,24.27
2022-12-02T23:42:13.989Z,22.90
2022-12-02T23:44:40.914Z,20.80
2022-12-02T23:47:07.915Z,24.45
2022-12-02T23:49:35.016Z,30.60
2022-12-02T23:52:01.926Z,29.30
2022-12-02T23:54:29.039Z,24.00
2022-12-02T23:56:56.765Z,34.17
2022-12-02T23:59:23.894Z,20.98
